< < Back
Terminal Aerodrome Forecast


Current Version              Previous Versions:   1  2  3  4  5  6  7  8  9  

Terminal Aerodrome Forecast

267
FTUS42 KFFC 041726
TAFPDK
TAF
KPDK 041726Z 0418/0518 31005KT P6SM SCT060 SCT250
     FM050200 00000KT P6SM FEW080 SCT250
     FM051500 25005KT P6SM SCT050=



Latest METAR

575
SAUS70 KWBC 042300 RRI
MTRPDK
METAR KPDK 042253Z 18004KT 10SM CLR 36/14 A2996 RMK AO2 SLP125
T03560144


USA.gov is the U.S. government's official web portal to all federal, state and local government web resources and services.